createdAt,value
2022-11-30T00:08:49.498Z,19.10
2022-11-30T00:22:49.620Z,17.60
2022-11-30T00:36:49.806Z,16.10
2022-11-30T00:50:49.833Z,15.00
2022-11-30T01:04:50.002Z,14.80
2022-11-30T01:18:50.079Z,13.70
2022-11-30T01:32:50.088Z,13.20
2022-11-30T01:46:50.021Z,12.90
2022-11-30T02:00:50.069Z,12.40
2022-11-30T02:14:50.199Z,12.00
2022-11-30T02:28:50.487Z,11.50
2022-11-30T02:42:50.753Z,11.20
2022-11-30T02:56:50.748Z,11.20
2022-11-30T03:10:50.460Z,11.20
2022-11-30T03:24:50.598Z,10.70
2022-11-30T03:38:50.458Z,10.40
2022-11-30T03:52:50.504Z,10.40
2022-11-30T04:06:50.530Z,10.20
2022-11-30T04:20:50.488Z,9.80
2022-11-30T04:34:50.505Z,10.20
2022-11-30T04:48:50.501Z,10.60
2022-11-30T05:02:52.655Z,10.30
2022-11-30T05:16:50.598Z,10.25
2022-11-30T05:30:50.688Z,9.40
2022-11-30T05:44:50.780Z,9.60
2022-11-30T05:58:50.670Z,9.50
2022-11-30T06:12:50.771Z,10.20
2022-11-30T06:26:50.792Z,9.60
2022-11-30T06:41:54.422Z,9.70
2022-11-30T06:56:50.858Z,8.65
2022-11-30T07:12:50.827Z,8.80
2022-11-30T07:27:50.803Z,8.20
2022-11-30T07:42:50.937Z,7.70
2022-11-30T07:57:51.101Z,7.90
2022-11-30T08:12:51.040Z,7.40
2022-11-30T08:27:51.063Z,7.00
2022-11-30T08:42:51.173Z,6.50
2022-11-30T08:57:51.220Z,6.50
2022-11-30T09:12:51.109Z,6.20
2022-11-30T09:27:51.130Z,6.30
2022-11-30T09:42:51.143Z,6.40
2022-11-30T09:57:51.180Z,5.90
2022-11-30T10:12:51.245Z,5.70
2022-11-30T10:27:51.307Z,5.60
2022-11-30T10:42:51.300Z,5.10
2022-11-30T10:45:01.677Z,5.40
2022-11-30T10:59:01.493Z,4.60
2022-11-30T11:14:01.531Z,4.95
2022-11-30T11:29:01.600Z,4.50
2022-11-30T11:44:01.537Z,5.00
2022-11-30T12:00:01.622Z,4.50
2022-11-30T12:15:02.741Z,4.40
2022-11-30T12:30:01.752Z,4.30
2022-11-30T12:46:01.835Z,4.40
2022-11-30T13:01:01.913Z,4.35
2022-11-30T13:16:01.932Z,3.80
2022-11-30T13:31:01.998Z,3.90
2022-11-30T13:46:02.008Z,3.80
2022-11-30T14:01:02.099Z,3.60
2022-11-30T14:16:02.216Z,3.40
2022-11-30T14:31:02.297Z,3.20
2022-11-30T14:46:05.563Z,3.10
2022-11-30T15:01:02.373Z,3.10
2022-11-30T15:16:02.549Z,5.50
2022-11-30T15:31:02.549Z,6.20
2022-11-30T15:46:02.566Z,6.20
2022-11-30T16:01:02.590Z,5.40
2022-11-30T16:15:02.718Z,6.40
2022-11-30T16:29:02.672Z,5.70
2022-11-30T16:43:02.787Z,5.30
2022-11-30T16:57:02.891Z,5.30
2022-11-30T17:11:02.741Z,5.10
2022-11-30T17:25:02.774Z,4.80
2022-11-30T17:39:02.829Z,5.10
2022-11-30T17:53:02.838Z,4.90
2022-11-30T18:07:02.847Z,4.80
2022-11-30T18:21:02.871Z,5.00
2022-11-30T18:35:03.319Z,4.80
2022-11-30T18:49:03.332Z,5.10
2022-11-30T19:03:03.410Z,4.80
2022-11-30T19:17:03.403Z,4.70
2022-11-30T19:31:03.396Z,6.50
2022-11-30T19:45:03.427Z,6.60
2022-11-30T19:59:05.356Z,6.80
2022-11-30T20:13:03.461Z,7.20
2022-11-30T20:27:03.487Z,7.40
2022-11-30T20:41:03.604Z,7.30
2022-11-30T20:55:03.560Z,12.50
2022-11-30T21:09:03.584Z,26.10
2022-11-30T21:23:03.562Z,38.20
2022-11-30T21:37:03.629Z,39.00
2022-11-30T21:51:03.617Z,37.30
2022-11-30T22:05:04.058Z,36.30
2022-11-30T22:19:04.011Z,34.20
2022-11-30T22:33:04.045Z,33.30
2022-11-30T22:47:04.107Z,32.40
2022-11-30T23:01:04.100Z,32.40
2022-11-30T23:15:04.126Z,32.00
2022-11-30T23:29:04.143Z,30.90
2022-11-30T23:43:04.172Z,29.20
2022-11-30T23:57:04.216Z,28.30
